TAF Text Data
IDs:
Format:
Raw Decoded Include METAR

Data at: 0323 UTC 19 Oct 2021

KBRO 182320Z 1900/1924 09007KT P6SM FEW250
  FM190200 VRB04KT P6SM FEW250
  FM191500 14007KT P6SM SCT035 SCT250
  FM191800 12010KT P6SM BKN250